TimeEDT,TemperatureF,Dew PointF,Humidity,Sea Level PressureIn,VisibilityMPH,Wind Direction,Wind SpeedMPH,Gust SpeedMPH,PrecipitationIn,Events,Conditions,WindDirDegrees,DateUTC
12:54 AM,64.0,63.0,96,29.60,10.0,WSW,3.5,-,N/A,,Clear,250,2013-06-29 04:54:00
1:54 AM,63.0,62.1,97,29.59,10.0,West,3.5,-,N/A,,Partly Cloudy,280,2013-06-29 05:54:00
2:54 AM,62.1,62.1,100,29.59,8.0,WSW,3.5,-,N/A,,Clear,250,2013-06-29 06:54:00
3:54 AM,63.0,62.1,97,29.59,9.0,Calm,Calm,-,N/A,,Clear,0,2013-06-29 07:54:00
4:17 AM,62.6,60.8,94,29.59,2.0,Calm,Calm,-,N/A,,Clear,0,2013-06-29 08:17:00
4:30 AM,60.8,60.8,100,29.59,0.8,Calm,Calm,-,N/A,,Clear,0,2013-06-29 08:30:00
4:54 AM,61.0,61.0,100,29.58,0.2,Calm,Calm,-,N/A,Fog,Fog,0,2013-06-29 08:54:00
5:05 AM,60.8,60.8,100,29.59,0.5,Calm,Calm,-,N/A,Fog,Fog,0,2013-06-29 09:05:00
5:25 AM,60.8,60.8,100,29.60,1.0,Calm,Calm,-,0.01,,Mist,0,2013-06-29 09:25:00
5:36 AM,60.8,60.8,100,29.60,2.0,West,3.5,-,0.01,,Partly Cloudy,280,2013-06-29 09:36:00
5:44 AM,60.8,60.8,100,29.60,4.0,West,3.5,-,0.01,,Partly Cloudy,280,2013-06-29 09:44:00
5:54 AM,61.0,60.1,97,29.59,6.0,WSW,3.5,-,0.01,,Scattered Clouds,250,2013-06-29 09:54:00
6:54 AM,62.1,62.1,100,29.60,9.0,West,3.5,-,N/A,,Mostly Cloudy,270,2013-06-29 10:54:00
7:54 AM,64.0,63.0,96,29.61,10.0,Calm,Calm,-,N/A,,Mostly Cloudy,0,2013-06-29 11:54:00
8:23 AM,64.4,64.4,100,29.61,10.0,Calm,Calm,-,N/A,,Overcast,0,2013-06-29 12:23:00
8:54 AM,66.0,64.0,93,29.61,10.0,West,4.6,-,N/A,,Overcast,280,2013-06-29 12:54:00
9:54 AM,66.9,64.9,93,29.62,10.0,West,4.6,-,N/A,,Overcast,270,2013-06-29 13:54:00
10:01 AM,66.2,64.4,94,29.62,10.0,Calm,Calm,-,N/A,,Overcast,0,2013-06-29 14:01:00
10:08 AM,66.2,64.4,94,29.62,9.0,WSW,3.5,-,0.00,Rain,Light Rain,250,2013-06-29 14:08:00
10:54 AM,66.9,64.0,90,29.61,4.0,NNW,3.5,-,0.02,Rain,Light Rain,340,2013-06-29 14:54:00
11:54 AM,68.0,64.9,90,29.61,5.0,NW,3.5,-,0.04,Rain,Light Rain,320,2013-06-29 15:54:00
12:01 PM,69.8,64.4,83,29.62,6.0,Calm,Calm,-,0.00,Rain,Light Rain,0,2013-06-29 16:01:00
12:18 PM,69.8,66.2,88,29.62,6.0,NW,3.5,-,0.00,,Mostly Cloudy,310,2013-06-29 16:18:00
12:33 PM,69.8,64.4,83,29.62,7.0,North,3.5,-,0.00,,Mostly Cloudy,350,2013-06-29 16:33:00
12:54 PM,70.0,64.9,84,29.61,8.0,NNW,3.5,-,0.00,,Mostly Cloudy,340,2013-06-29 16:54:00
1:26 PM,69.8,64.4,83,29.62,10.0,NNW,3.5,-,N/A,,Scattered Clouds,340,2013-06-29 17:26:00
1:54 PM,68.0,64.0,87,29.62,5.0,North,3.5,-,0.00,Rain,Light Rain,350,2013-06-29 17:54:00
2:54 PM,66.9,64.9,93,29.62,2.5,Calm,Calm,-,0.08,Rain,Rain,0,2013-06-29 18:54:00
3:15 PM,68.0,66.2,94,29.61,4.0,East,8.1,-,0.01,Rain,Light Rain,90,2013-06-29 19:15:00
3:54 PM,69.1,66.0,90,29.62,4.0,West,4.6,-,0.01,,Mostly Cloudy,270,2013-06-29 19:54:00
4:04 PM,68.0,66.2,94,29.63,4.0,WNW,6.9,-,0.01,Rain,Light Rain,300,2013-06-29 20:04:00
4:20 PM,66.2,64.4,94,29.63,5.0,Calm,Calm,-,0.02,Rain,Light Rain,0,2013-06-29 20:20:00
4:29 PM,68.0,64.4,88,29.63,5.0,Calm,Calm,-,0.02,Rain,Light Rain,0,2013-06-29 20:29:00
4:37 PM,68.0,64.4,88,29.63,7.0,Calm,Calm,-,0.02,,Overcast,0,2013-06-29 20:37:00
4:54 PM,68.0,66.0,93,29.62,7.0,WNW,3.5,-,0.02,,Overcast,300,2013-06-29 20:54:00
5:01 PM,68.0,64.4,88,29.63,7.0,NW,3.5,-,N/A,,Overcast,310,2013-06-29 21:01:00
5:54 PM,71.1,66.0,84,29.62,10.0,North,3.5,-,N/A,,Overcast,350,2013-06-29 21:54:00
6:50 PM,69.8,64.4,83,29.64,10.0,Calm,Calm,-,N/A,,Overcast,0,2013-06-29 22:50:00
6:54 PM,70.0,64.9,84,29.63,7.0,Calm,Calm,-,0.01,Rain,Light Rain,0,2013-06-29 22:54:00
7:04 PM,69.8,66.2,88,29.64,2.0,Calm,Calm,-,0.02,Rain,Light Rain,0,2013-06-29 23:04:00
7:12 PM,69.8,66.2,88,29.64,9.0,Calm,Calm,-,0.02,Rain,Light Rain,0,2013-06-29 23:12:00
7:21 PM,69.8,66.2,88,29.65,7.0,NNE,4.6,-,0.02,Rain-Thunderstorm,Light Thunderstorms and Rain,30,2013-06-29 23:21:00
7:54 PM,64.9,63.0,93,29.65,3.0,North,12.7,18.4,0.10,Rain-Thunderstorm,Thunderstorms and Rain,350,2013-06-29 23:54:00
8:05 PM,64.4,62.6,94,29.66,3.0,North,12.7,-,0.05,Rain,Rain,360,2013-06-30 00:05:00
8:54 PM,64.0,63.0,96,29.67,3.0,NNE,3.5,-,0.09,,Overcast,30,2013-06-30 00:54:00
9:04 PM,64.4,62.6,94,29.68,10.0,NE,5.8,-,N/A,,Overcast,40,2013-06-30 01:04:00
9:11 PM,64.4,62.6,94,29.68,10.0,NE,4.6,-,N/A,,Overcast,40,2013-06-30 01:11:00
9:39 PM,64.4,62.6,94,29.67,10.0,NNE,4.6,-,N/A,,Scattered Clouds,20,2013-06-30 01:39:00
9:54 PM,64.0,63.0,96,29.67,10.0,NNE,4.6,-,N/A,,Scattered Clouds,30,2013-06-30 01:54:00
10:54 PM,64.0,63.0,96,29.69,10.0,North,5.8,-,N/A,,Mostly Cloudy,360,2013-06-30 02:54:00
11:54 PM,64.9,63.0,93,29.69,10.0,North,4.6,-,0.01,,Overcast,360,2013-06-30 03:54:00